createdAt,value
2019-03-17T00:01:23.829Z,94.57
2019-03-17T00:03:54.202Z,94.69
2019-03-17T00:06:24.660Z,94.82
2019-03-17T00:08:56.322Z,94.85
2019-03-17T00:11:28.265Z,94.85
2019-03-17T00:13:58.653Z,95.07
2019-03-17T00:16:29.150Z,94.98
2019-03-17T00:18:59.578Z,95.17
2019-03-17T00:21:30.065Z,95.19
2019-03-17T00:24:00.495Z,95.21
2019-03-17T00:26:33.676Z,95.26
2019-03-17T00:29:04.127Z,95.30
2019-03-17T00:31:34.570Z,95.31
2019-03-17T00:34:06.577Z,95.29
2019-03-17T00:36:38.957Z,95.28
2019-03-17T00:39:09.046Z,95.29
2019-03-17T00:41:43.348Z,95.33
2019-03-17T00:44:16.253Z,95.35
2019-03-17T00:46:47.744Z,95.35
2019-03-17T00:49:18.233Z,95.34
2019-03-17T00:51:48.842Z,95.34
2019-03-17T00:54:19.311Z,95.20
2019-03-17T00:56:51.348Z,95.18
2019-03-17T00:59:21.849Z,95.15
2019-03-17T01:01:52.456Z,95.09
2019-03-17T01:04:22.886Z,94.98
2019-03-17T01:06:53.346Z,94.75
2019-03-17T01:09:25.396Z,94.63
2019-03-17T01:11:55.886Z,94.48
2019-03-17T01:14:26.826Z,94.38
2019-03-17T01:16:57.279Z,94.28
2019-03-17T01:19:27.673Z,94.41
2019-03-17T01:21:58.063Z,94.42
2019-03-17T01:24:30.530Z,94.25
2019-03-17T01:27:04.021Z,94.27
2019-03-17T01:29:35.310Z,94.11
2019-03-17T01:32:05.752Z,93.92
2019-03-17T01:34:36.322Z,94.09
2019-03-17T01:37:06.785Z,94.13
2019-03-17T01:39:37.193Z,94.26
2019-03-17T01:42:09.816Z,94.23
2019-03-17T01:44:41.810Z,94.18
2019-03-17T01:47:14.921Z,94.08
2019-03-17T01:49:45.436Z,93.98
2019-03-17T01:52:15.848Z,93.77
2019-03-17T01:54:46.283Z,93.51
2019-03-17T01:57:16.839Z,93.46
2019-03-17T01:59:47.242Z,93.38
2019-03-17T02:02:17.769Z,93.56
2019-03-17T02:04:48.216Z,93.48
2019-03-17T02:07:18.595Z,93.25
2019-03-17T02:09:49.061Z,92.65
2019-03-17T02:12:19.571Z,92.73
2019-03-17T02:14:50.007Z,92.60
2019-03-17T02:17:20.407Z,92.33
2019-03-17T02:19:52.396Z,91.99
2019-03-17T02:22:22.818Z,91.94
2019-03-17T02:24:53.232Z,91.74
2019-03-17T02:27:23.672Z,91.85
2019-03-17T02:29:55.767Z,91.89
2019-03-17T02:32:27.767Z,91.93
2019-03-17T02:34:58.414Z,92.05
2019-03-17T02:37:30.866Z,92.11
2019-03-17T02:40:02.512Z,92.11
2019-03-17T02:42:33.015Z,91.93
2019-03-17T02:45:03.608Z,91.50
2019-03-17T02:47:34.786Z,91.57
2019-03-17T02:50:09.445Z,91.73
2019-03-17T02:52:39.988Z,91.55
2019-03-17T02:55:10.369Z,91.47
2019-03-17T02:57:42.954Z,91.38
2019-03-17T03:00:13.403Z,90.98
2019-03-17T03:02:43.834Z,90.76
2019-03-17T03:05:14.268Z,90.65
2019-03-17T03:07:44.707Z,90.68
2019-03-17T03:10:15.189Z,90.65
2019-03-17T03:12:45.707Z,90.63
2019-03-17T03:15:18.717Z,90.61
2019-03-17T03:17:49.151Z,90.29
2019-03-17T03:20:19.544Z,90.04
2019-03-17T03:22:49.956Z,89.77
2019-03-17T03:25:22.434Z,89.66
2019-03-17T03:27:52.521Z,89.74
2019-03-17T03:30:22.999Z,89.92
2019-03-17T03:32:56.045Z,89.39
2019-03-17T03:35:27.335Z,89.26
2019-03-17T03:37:57.722Z,89.39
2019-03-17T03:40:28.180Z,89.27
2019-03-17T03:42:58.735Z,89.21
2019-03-17T03:45:29.311Z,89.35
2019-03-17T03:48:05.030Z,89.19
2019-03-17T03:50:35.413Z,89.07
2019-03-17T03:53:05.833Z,89.12
2019-03-17T03:55:42.162Z,89.56
2019-03-17T03:58:11.397Z,89.53
2019-03-17T04:00:44.665Z,89.48
2019-03-17T04:03:15.141Z,89.35
2019-03-17T04:05:45.550Z,89.11
2019-03-17T04:08:15.972Z,89.31
2019-03-17T04:10:48.672Z,89.25
2019-03-17T04:13:19.133Z,89.59
2019-03-17T04:15:54.537Z,89.48
2019-03-17T04:18:24.680Z,89.24
2019-03-17T04:20:55.163Z,89.11
2019-03-17T04:23:25.786Z,89.33
2019-03-17T04:25:58.788Z,89.03
2019-03-17T04:28:29.232Z,89.26
2019-03-17T04:30:59.627Z,89.28
2019-03-17T04:33:30.135Z,89.21
2019-03-17T04:36:00.679Z,88.72
2019-03-17T04:38:31.123Z,88.96
2019-03-17T04:43:49.472Z,88.71
2019-03-17T04:46:25.020Z,88.34
2019-03-17T04:48:55.361Z,88.36
2019-03-17T04:51:28.505Z,88.40
2019-03-17T04:54:04.942Z,87.94
2019-03-17T04:56:39.686Z,87.69
2019-03-17T04:59:11.753Z,87.00
2019-03-17T05:01:42.998Z,87.44
2019-03-17T05:04:17.373Z,87.15
2019-03-17T05:06:52.959Z,86.78
2019-03-17T05:09:43.705Z,86.99
2019-03-17T05:15:14.989Z,86.08
2019-03-17T05:17:52.690Z,86.57
2019-03-17T05:20:25.719Z,86.31
2019-03-17T05:22:57.979Z,86.34
2019-03-17T05:25:29.953Z,86.34
2019-03-17T05:28:00.750Z,85.96
2019-03-17T05:30:32.768Z,85.21
2019-03-17T05:33:06.030Z,85.15
2019-03-17T05:35:37.622Z,85.15
2019-03-17T05:38:08.259Z,85.00
2019-03-17T05:40:38.959Z,84.40
2019-03-17T05:43:09.470Z,84.80
2019-03-17T05:45:41.676Z,84.00
2019-03-17T05:48:12.815Z,84.20
2019-03-17T05:50:54.916Z,84.20
2019-03-17T05:53:29.855Z,85.43
2019-03-17T05:56:06.594Z,83.94
2019-03-17T05:58:55.591Z,83.58
2019-03-17T06:01:29.778Z,82.59
2019-03-17T06:04:00.349Z,83.24
2019-03-17T06:06:32.382Z,81.54
2019-03-17T06:09:06.094Z,79.89
2019-03-17T06:11:36.535Z,79.91
2019-03-17T06:14:12.838Z,79.61
2019-03-17T06:16:45.173Z,78.04
2019-03-17T06:19:15.698Z,79.23
2019-03-17T06:21:49.001Z,80.02
2019-03-17T06:24:19.577Z,78.25
2019-03-17T06:26:51.585Z,79.00
2019-03-17T06:29:25.020Z,78.33
2019-03-17T06:31:55.465Z,78.09
2019-03-17T06:34:29.338Z,78.84
2019-03-17T06:37:01.627Z,78.18
2019-03-17T06:39:34.709Z,78.12
2019-03-17T06:42:07.612Z,78.81
2019-03-17T06:44:38.082Z,79.49
2019-03-17T06:47:10.364Z,79.51
2019-03-17T06:49:47.128Z,78.87
2019-03-17T06:52:17.565Z,78.98
2019-03-17T06:54:48.185Z,77.48
2019-03-17T06:57:20.643Z,77.50
2019-03-17T06:59:53.154Z,77.85
2019-03-17T07:02:23.835Z,77.34
2019-03-17T07:04:55.992Z,77.51
2019-03-17T07:07:28.284Z,77.87
2019-03-17T07:09:59.871Z,78.15
2019-03-17T07:12:38.037Z,75.69
2019-03-17T07:15:13.431Z,74.40
2019-03-17T14:34:33.764Z,76.10
2019-03-17T14:37:06.833Z,76.91
2019-03-17T14:39:41.376Z,77.04
2019-03-17T14:42:16.490Z,76.59
2019-03-17T14:44:50.459Z,77.63
2019-03-17T14:47:22.335Z,77.09
2019-03-17T14:49:56.331Z,77.61
2019-03-17T14:52:35.020Z,77.39
2019-03-17T14:55:06.873Z,77.85
2019-03-17T14:57:37.365Z,77.71
2019-03-17T15:00:22.881Z,77.89
2019-03-17T15:02:56.510Z,77.34
2019-03-17T15:05:32.759Z,77.29
2019-03-17T15:08:15.220Z,77.31
2019-03-17T15:11:04.936Z,77.59
2019-03-17T15:13:29.036Z,77.80
2019-03-17T15:16:05.258Z,78.43
2019-03-17T15:18:36.459Z,78.60
2019-03-17T15:21:08.586Z,78.51
2019-03-17T15:23:40.740Z,79.45
2019-03-17T15:26:14.734Z,79.82
2019-03-17T15:28:45.721Z,79.40
2019-03-17T15:31:22.895Z,79.38
2019-03-17T15:33:56.865Z,79.46
2019-03-17T15:36:32.006Z,79.10
2019-03-17T15:39:08.605Z,79.30
2019-03-17T15:41:41.353Z,79.81
2019-03-17T15:44:25.923Z,78.93
2019-03-17T15:46:58.473Z,78.61
2019-03-17T15:49:34.208Z,79.07
2019-03-17T15:52:04.801Z,78.53
2019-03-17T15:54:37.427Z,77.91
2019-03-17T15:57:11.012Z,77.75
2019-03-17T15:59:41.725Z,77.56
2019-03-17T16:02:16.184Z,77.28
2019-03-17T16:04:55.251Z,76.68
2019-03-17T16:07:54.748Z,76.79
2019-03-17T16:10:20.197Z,76.97
2019-03-17T16:12:50.822Z,76.29
2019-03-17T16:15:24.137Z,75.64
2019-03-17T16:18:01.827Z,73.88
2019-03-17T16:20:35.103Z,74.25
2019-03-17T16:23:05.725Z,74.66
2019-03-17T16:25:41.280Z,73.86
2019-03-17T16:28:14.120Z,73.39
2019-03-17T16:30:50.967Z,73.71
2019-03-17T16:36:24.309Z,72.61
2019-03-17T16:42:19.848Z,73.09
2019-03-17T16:48:13.826Z,73.66
2019-03-17T16:53:51.037Z,73.67
2019-03-17T18:16:07.433Z,78.27
2019-03-17T18:18:43.255Z,78.97
2019-03-17T18:24:56.668Z,78.93
2019-03-17T18:27:32.150Z,79.27
2019-03-17T18:33:47.108Z,79.65
2019-03-17T18:39:14.459Z,80.19
2019-03-17T18:42:03.027Z,79.66
2019-03-17T18:44:42.209Z,80.34
2019-03-17T18:47:26.380Z,81.61
2019-03-17T18:50:19.470Z,81.47
2019-03-17T18:52:57.648Z,81.73
2019-03-17T18:58:48.699Z,81.85
2019-03-17T19:01:36.034Z,80.74
2019-03-17T19:04:26.582Z,81.83
2019-03-17T19:07:09.558Z,81.36
2019-03-17T19:09:56.161Z,81.55
2019-03-17T19:12:29.251Z,81.82
2019-03-17T19:15:18.115Z,82.07
2019-03-17T19:17:54.920Z,82.51
2019-03-17T19:20:47.461Z,82.75
2019-03-17T21:00:46.110Z,86.72
2019-03-17T21:03:30.951Z,86.40
2019-03-17T21:13:09.300Z,87.61
2019-03-17T21:25:46.174Z,88.81
2019-03-17T21:31:35.316Z,88.68
2019-03-17T21:34:33.581Z,88.49
2019-03-17T21:43:24.325Z,88.99
2019-03-17T21:46:13.823Z,89.41
2019-03-17T21:59:11.202Z,91.36
2019-03-17T22:02:14.180Z,91.57
2019-03-17T22:08:19.165Z,92.04
2019-03-17T22:14:18.899Z,92.00
2019-03-17T22:16:56.060Z,92.28
2019-03-17T22:19:47.556Z,92.77
2019-03-17T22:22:20.672Z,92.68
2019-03-17T22:24:54.264Z,92.69
2019-03-17T22:27:33.472Z,92.98
2019-03-17T22:36:06.145Z,91.96
2019-03-17T22:38:42.256Z,91.55
2019-03-17T22:41:16.825Z,91.07
2019-03-17T22:43:49.172Z,90.82
2019-03-17T22:46:26.323Z,90.99
2019-03-17T22:48:58.809Z,90.65
2019-03-17T22:51:31.102Z,91.12
2019-03-17T22:54:01.594Z,91.29
2019-03-17T22:56:32.260Z,91.75
2019-03-17T22:59:02.986Z,91.77
2019-03-17T23:01:35.236Z,92.02
2019-03-17T23:04:07.606Z,92.32
2019-03-17T23:06:38.179Z,92.75
2019-03-17T23:09:08.835Z,92.30
2019-03-17T23:11:39.465Z,91.85
2019-03-17T23:14:17.838Z,91.75
2019-03-17T23:19:39.323Z,91.00
2019-03-17T23:22:10.986Z,90.73
2019-03-17T23:24:42.548Z,90.74
2019-03-17T23:27:13.233Z,90.35
2019-03-17T23:29:45.076Z,90.38
2019-03-17T23:32:22.327Z,90.66
2019-03-17T23:34:57.208Z,90.63
2019-03-17T23:37:44.173Z,90.79
2019-03-17T23:40:15.959Z,90.61
2019-03-17T23:42:48.733Z,90.42
2019-03-17T23:45:19.956Z,90.81
2019-03-17T23:47:50.515Z,91.21
2019-03-17T23:50:24.590Z,91.35
2019-03-17T23:52:56.665Z,91.31
2019-03-17T23:55:27.192Z,91.08
2019-03-17T23:57:57.755Z,90.64
